createdAt,value
2023-02-06T00:03:08.092Z,1031.369
2023-02-06T00:23:07.758Z,1031.491
2023-02-06T00:43:07.754Z,1031.386
2023-02-06T01:03:08.439Z,1031.426
2023-02-06T01:23:07.210Z,1031.487
2023-02-06T01:43:08.038Z,1031.513
2023-02-06T02:03:09.024Z,1031.32
2023-02-06T02:23:08.057Z,1031.318
2023-02-06T02:43:07.987Z,1031.426
2023-02-06T03:03:08.947Z,1031.254
2023-02-06T03:23:07.762Z,1031.418
2023-02-06T03:43:08.181Z,1031.605
2023-02-06T04:03:08.922Z,1031.762
2023-02-06T04:23:07.689Z,1031.549
2023-02-06T04:43:07.679Z,1031.463
2023-02-06T05:03:08.607Z,1031.345
2023-02-06T05:23:07.450Z,1031.276
2023-02-06T05:43:07.637Z,1031.338
2023-02-06T06:03:08.358Z,1031.479
2023-02-06T06:23:07.209Z,1031.349
2023-02-06T06:43:07.251Z,1031.717
2023-02-06T07:03:08.434Z,1031.761
2023-02-06T07:23:07.393Z,1031.715
2023-02-06T07:43:07.430Z,1031.577
2023-02-06T08:03:08.206Z,1031.908
2023-02-06T08:23:08.126Z,1031.744
2023-02-06T08:43:07.940Z,1031.721
2023-02-06T09:03:08.846Z,1031.902
2023-02-06T09:23:07.739Z,1031.883
2023-02-06T09:43:07.632Z,1031.736
2023-02-06T10:03:08.629Z,1031.486
2023-02-06T10:23:07.489Z,1031.392
2023-02-06T10:43:07.402Z,1031.182
2023-02-06T11:03:09.359Z,1031.253
2023-02-06T11:23:07.478Z,1031.189
2023-02-06T11:43:07.493Z,1030.93
2023-02-06T12:03:08.495Z,1030.902
2023-02-06T12:23:07.425Z,1030.765
2023-02-06T12:43:07.323Z,1030.637
2023-02-06T13:03:08.500Z,1030.587
2023-02-06T13:23:07.391Z,1030.408
2023-02-06T13:43:07.418Z,1030.247
2023-02-06T14:03:08.541Z,1030.492
2023-02-06T14:23:07.422Z,1030.322
2023-02-06T14:43:07.542Z,1030.262
2023-02-06T15:03:08.580Z,1030.148
2023-02-06T15:23:19.318Z,1030.086
2023-02-06T15:43:07.436Z,1030.096
2023-02-06T16:03:08.336Z,1030.133
2023-02-06T16:23:07.356Z,1030.092
2023-02-06T16:43:07.365Z,1030.258
2023-02-06T17:03:08.199Z,1030.268
2023-02-06T17:23:08.033Z,1030.328
2023-02-06T17:43:08.114Z,1030.44
2023-02-06T18:03:09.525Z,1030.341
2023-02-06T18:23:07.632Z,1030.453
2023-02-06T18:43:07.804Z,1030.445
2023-02-06T19:03:08.814Z,1030.581
2023-02-06T19:23:07.888Z,1030.802
2023-02-06T19:43:07.920Z,1030.752
2023-02-06T20:03:09.120Z,1030.789
2023-02-06T20:23:08.097Z,1031.026
2023-02-06T20:43:07.127Z,1031.15
2023-02-06T21:03:08.988Z,1031.309
2023-02-06T21:23:07.907Z,1031.28
2023-02-06T21:43:07.922Z,1031.117
2023-02-06T22:03:09.020Z,1031.165
2023-02-06T22:23:07.976Z,1031.181
2023-02-06T22:43:08.235Z,1031.237
2023-02-06T23:03:08.307Z,1031.353
2023-02-06T23:23:08.029Z,1031.593
2023-02-06T23:43:07.751Z,1031.614
